Terminal Aerodrome Forecast
Issued by NWS

Home | Current Version | Previous Version | Text Only | Print | Product List | Glossary On
Versions: 1 2 3 4 5 6 7 8 9 10 11 12 13 14 15
000
FTAK31 PAJN 272326
TAFAPG
TAF
PAPG 272326Z 2800/2824 VRB05KT P6SM -RA SCT025 BKN050 OVC060
      WS020/16030KT
     FM280300 15008KT 5SM RA BR OVC015 WS020/17030KT
     FM280900 VRB05KT 6SM -RA BR OVC012 WS020/17025KT
     FM281300 10007KT 4SM RA BR OVC013 WS020/17025KT
     FM281800 12009KT 4SM RA BR OVC012 WS020/16025KT
      AMD LTD TO CLD VIS AND WIND 2806/2815=

USA.gov is the U.S. government's official web portal to all federal, state and local government web resources and services.